sensor_id;sensor_type;location;lat;lon;timestamp;temperature;humidity
19415;DHT22;9843;48.882;12.592;2022-10-29T00:01:00;12.90;99.90
19415;DHT22;9843;48.882;12.592;2022-10-29T00:03:26;12.90;99.90
19415;DHT22;9843;48.882;12.592;2022-10-29T00:05:55;12.80;99.90
19415;DHT22;9843;48.882;12.592;2022-10-29T00:08:23;12.80;99.90
19415;DHT22;9843;48.882;12.592;2022-10-29T00:10:51;12.70;99.90
19415;DHT22;9843;48.882;12.592;2022-10-29T00:13:18;12.70;99.90
19415;DHT22;9843;48.882;12.592;2022-10-29T00:15:45;12.60;99.90
19415;DHT22;9843;48.882;12.592;2022-10-29T00:18:12;12.60;99.90
19415;DHT22;9843;48.882;12.592;2022-10-29T00:20:38;12.50;99.90
19415;DHT22;9843;48.882;12.592;2022-10-29T00:23:05;12.40;99.90
19415;DHT22;9843;48.882;12.592;2022-10-29T00:25:32;12.30;99.90
19415;DHT22;9843;48.882;12.592;2022-10-29T00:28:00;12.20;99.90
19415;DHT22;9843;48.882;12.592;2022-10-29T00:30:27;12.10;99.90
19415;DHT22;9843;48.882;12.592;2022-10-29T00:32:53;12.00;99.90
19415;DHT22;9843;48.882;12.592;2022-10-29T00:35:20;11.90;99.90
19415;DHT22;9843;48.882;12.592;2022-10-29T00:37:47;11.80;99.90
19415;DHT22;9843;48.882;12.592;2022-10-29T00:40:14;11.80;99.90
19415;DHT22;9843;48.882;12.592;2022-10-29T00:42:40;11.70;99.90
19415;DHT22;9843;48.882;12.592;2022-10-29T00:45:19;11.70;99.90
19415;DHT22;9843;48.882;12.592;2022-10-29T00:47:49;11.60;99.90
19415;DHT22;9843;48.882;12.592;2022-10-29T00:50:18;11.60;99.90
19415;DHT22;9843;48.882;12.592;2022-10-29T00:52:49;11.60;99.90
19415;DHT22;9843;48.882;12.592;2022-10-29T00:55:17;11.60;99.90
19415;DHT22;9843;48.882;12.592;2022-10-29T00:57:48;11.60;99.90
19415;DHT22;9843;48.882;12.592;2022-10-29T01:00:17;11.60;99.90
19415;DHT22;9843;48.882;12.592;2022-10-29T01:02:44;11.60;99.90
19415;DHT22;9843;48.882;12.592;2022-10-29T01:05:14;11.60;99.90
19415;DHT22;9843;48.882;12.592;2022-10-29T01:07:41;11.60;99.90
19415;DHT22;9843;48.882;12.592;2022-10-29T01:10:09;11.70;99.90
19415;DHT22;9843;48.882;12.592;2022-10-29T01:12:53;11.60;99.90
19415;DHT22;9843;48.882;12.592;2022-10-29T01:15:27;11.60;99.90
19415;DHT22;9843;48.882;12.592;2022-10-29T01:18:06;11.70;99.90
19415;DHT22;9843;48.882;12.592;2022-10-29T01:30:17;11.70;99.90
19415;DHT22;9843;48.882;12.592;2022-10-29T01:32:59;11.70;99.90
19415;DHT22;9843;48.882;12.592;2022-10-29T01:35:31;11.70;99.90
19415;DHT22;9843;48.882;12.592;2022-10-29T01:38:09;11.60;99.90
19415;DHT22;9843;48.882;12.592;2022-10-29T01:40:42;11.60;99.90
19415;DHT22;9843;48.882;12.592;2022-10-29T01:43:14;11.50;99.90
19415;DHT22;9843;48.882;12.592;2022-10-29T01:45:47;11.50;99.90
19415;DHT22;9843;48.882;12.592;2022-10-29T01:48:20;11.50;99.90
19415;DHT22;9843;48.882;12.592;2022-10-29T01:50:50;11.40;99.90
19415;DHT22;9843;48.882;12.592;2022-10-29T01:53:19;11.40;99.90
19415;DHT22;9843;48.882;12.592;2022-10-29T01:55:46;11.30;99.90
19415;DHT22;9843;48.882;12.592;2022-10-29T01:58:13;11.30;99.90
19415;DHT22;9843;48.882;12.592;2022-10-29T02:00:48;11.20;99.90
19415;DHT22;9843;48.882;12.592;2022-10-29T02:03:27;11.20;99.90
19415;DHT22;9843;48.882;12.592;2022-10-29T02:06:05;11.10;99.90
19415;DHT22;9843;48.882;12.592;2022-10-29T02:08:40;11.00;99.90
19415;DHT22;9843;48.882;12.592;2022-10-29T02:11:15;11.00;99.90
19415;DHT22;9843;48.882;12.592;2022-10-29T02:13:47;10.90;99.90
19415;DHT22;9843;48.882;12.592;2022-10-29T02:16:15;10.80;99.90
19415;DHT22;9843;48.882;12.592;2022-10-29T02:18:46;10.80;99.90
19415;DHT22;9843;48.882;12.592;2022-10-29T02:21:14;10.80;99.90
19415;DHT22;9843;48.882;12.592;2022-10-29T02:23:41;10.80;99.90
19415;DHT22;9843;48.882;12.592;2022-10-29T02:26:08;10.70;99.90
19415;DHT22;9843;48.882;12.592;2022-10-29T02:28:35;10.80;99.90
19415;DHT22;9843;48.882;12.592;2022-10-29T02:31:01;10.70;99.90
19415;DHT22;9843;48.882;12.592;2022-10-29T02:33:28;10.70;99.90
19415;DHT22;9843;48.882;12.592;2022-10-29T02:35:56;10.70;99.90
19415;DHT22;9843;48.882;12.592;2022-10-29T02:38:23;10.70;99.90
19415;DHT22;9843;48.882;12.592;2022-10-29T02:40:50;10.70;99.90
19415;DHT22;9843;48.882;12.592;2022-10-29T02:43:17;10.70;99.90
19415;DHT22;9843;48.882;12.592;2022-10-29T02:45:44;10.60;99.90
19415;DHT22;9843;48.882;12.592;2022-10-29T02:48:10;10.60;99.90
19415;DHT22;9843;48.882;12.592;2022-10-29T02:50:37;10.70;99.90
19415;DHT22;9843;48.882;12.592;2022-10-29T02:53:05;10.70;99.90
19415;DHT22;9843;48.882;12.592;2022-10-29T02:55:32;10.80;99.90
19415;DHT22;9843;48.882;12.592;2022-10-29T02:57:59;10.80;99.90
19415;DHT22;9843;48.882;12.592;2022-10-29T03:00:25;10.80;99.90
19415;DHT22;9843;48.882;12.592;2022-10-29T03:02:52;10.80;99.90
19415;DHT22;9843;48.882;12.592;2022-10-29T03:05:19;10.80;99.90
19415;DHT22;9843;48.882;12.592;2022-10-29T03:07:46;10.90;99.90
19415;DHT22;9843;48.882;12.592;2022-10-29T03:10:14;10.90;99.90
19415;DHT22;9843;48.882;12.592;2022-10-29T03:12:40;10.80;99.90
19415;DHT22;9843;48.882;12.592;2022-10-29T03:15:08;10.90;99.90
19415;DHT22;9843;48.882;12.592;2022-10-29T03:17:35;10.90;99.90
19415;DHT22;9843;48.882;12.592;2022-10-29T03:20:02;10.80;99.90
19415;DHT22;9843;48.882;12.592;2022-10-29T03:22:29;10.90;99.90
19415;DHT22;9843;48.882;12.592;2022-10-29T03:24:56;10.90;99.90
19415;DHT22;9843;48.882;12.592;2022-10-29T03:27:24;10.90;99.90
19415;DHT22;9843;48.882;12.592;2022-10-29T03:29:51;10.90;99.90
19415;DHT22;9843;48.882;12.592;2022-10-29T03:32:17;10.90;99.90
19415;DHT22;9843;48.882;12.592;2022-10-29T03:34:44;10.90;99.90
19415;DHT22;9843;48.882;12.592;2022-10-29T03:37:11;10.90;99.90
19415;DHT22;9843;48.882;12.592;2022-10-29T03:39:38;10.90;99.90
19415;DHT22;9843;48.882;12.592;2022-10-29T03:42:04;10.90;99.90
19415;DHT22;9843;48.882;12.592;2022-10-29T03:44:32;10.90;99.90
19415;DHT22;9843;48.882;12.592;2022-10-29T03:46:59;11.00;99.90
19415;DHT22;9843;48.882;12.592;2022-10-29T03:49:26;11.00;99.90
19415;DHT22;9843;48.882;12.592;2022-10-29T03:51:53;11.00;99.90
19415;DHT22;9843;48.882;12.592;2022-10-29T03:54:19;11.00;99.90
19415;DHT22;9843;48.882;12.592;2022-10-29T03:56:46;11.00;99.90
19415;DHT22;9843;48.882;12.592;2022-10-29T03:59:13;11.00;99.90
19415;DHT22;9843;48.882;12.592;2022-10-29T04:01:41;11.00;99.90
19415;DHT22;9843;48.882;12.592;2022-10-29T04:04:08;11.00;99.90
19415;DHT22;9843;48.882;12.592;2022-10-29T04:06:35;11.00;99.90
19415;DHT22;9843;48.882;12.592;2022-10-29T04:09:02;10.90;99.90
19415;DHT22;9843;48.882;12.592;2022-10-29T04:11:29;10.90;99.90
19415;DHT22;9843;48.882;12.592;2022-10-29T04:13:55;10.90;99.90
19415;DHT22;9843;48.882;12.592;2022-10-29T04:16:22;10.90;99.90
19415;DHT22;9843;48.882;12.592;2022-10-29T04:18:51;10.80;99.90
19415;DHT22;9843;48.882;12.592;2022-10-29T04:21:17;10.80;99.90
19415;DHT22;9843;48.882;12.592;2022-10-29T04:23:44;10.70;99.90
19415;DHT22;9843;48.882;12.592;2022-10-29T04:26:11;10.70;99.90
19415;DHT22;9843;48.882;12.592;2022-10-29T04:28:38;10.70;99.90
19415;DHT22;9843;48.882;12.592;2022-10-29T04:31:05;10.60;99.90
19415;DHT22;9843;48.882;12.592;2022-10-29T04:33:32;10.60;99.90
19415;DHT22;9843;48.882;12.592;2022-10-29T04:36:00;10.60;99.90
19415;DHT22;9843;48.882;12.592;2022-10-29T04:38:27;10.50;99.90
19415;DHT22;9843;48.882;12.592;2022-10-29T04:40:56;10.50;99.90
19415;DHT22;9843;48.882;12.592;2022-10-29T04:43:23;10.50;99.90
19415;DHT22;9843;48.882;12.592;2022-10-29T04:45:51;10.50;99.90
19415;DHT22;9843;48.882;12.592;2022-10-29T04:48:18;10.50;99.90
19415;DHT22;9843;48.882;12.592;2022-10-29T04:50:46;10.50;99.90
19415;DHT22;9843;48.882;12.592;2022-10-29T04:53:15;10.50;99.90
19415;DHT22;9843;48.882;12.592;2022-10-29T04:55:42;10.50;99.90
19415;DHT22;9843;48.882;12.592;2022-10-29T04:58:12;10.40;99.90
19415;DHT22;9843;48.882;12.592;2022-10-29T05:00:39;10.40;99.90
19415;DHT22;9843;48.882;12.592;2022-10-29T05:03:06;10.40;99.90
19415;DHT22;9843;48.882;12.592;2022-10-29T05:05:34;10.40;99.90
19415;DHT22;9843;48.882;12.592;2022-10-29T05:08:02;10.40;99.90
19415;DHT22;9843;48.882;12.592;2022-10-29T05:10:32;10.30;99.90
19415;DHT22;9843;48.882;12.592;2022-10-29T05:13:01;10.40;99.90
19415;DHT22;9843;48.882;12.592;2022-10-29T05:15:29;10.40;99.90
19415;DHT22;9843;48.882;12.592;2022-10-29T05:17:56;10.30;99.90
19415;DHT22;9843;48.882;12.592;2022-10-29T05:20:24;10.30;99.90
19415;DHT22;9843;48.882;12.592;2022-10-29T05:22:57;10.30;99.90
19415;DHT22;9843;48.882;12.592;2022-10-29T05:25:25;10.20;99.90
19415;DHT22;9843;48.882;12.592;2022-10-29T05:28:00;10.20;99.90
19415;DHT22;9843;48.882;12.592;2022-10-29T05:30:27;10.20;99.90
19415;DHT22;9843;48.882;12.592;2022-10-29T05:32:54;10.20;99.90
19415;DHT22;9843;48.882;12.592;2022-10-29T05:35:20;10.20;99.90
19415;DHT22;9843;48.882;12.592;2022-10-29T05:37:50;10.20;99.90
19415;DHT22;9843;48.882;12.592;2022-10-29T05:40:17;10.20;99.90
19415;DHT22;9843;48.882;12.592;2022-10-29T05:42:44;10.30;99.90
19415;DHT22;9843;48.882;12.592;2022-10-29T05:45:12;10.30;99.90
19415;DHT22;9843;48.882;12.592;2022-10-29T05:47:39;10.30;99.90
19415;DHT22;9843;48.882;12.592;2022-10-29T05:50:07;10.30;99.90
19415;DHT22;9843;48.882;12.592;2022-10-29T05:52:34;10.30;99.90
19415;DHT22;9843;48.882;12.592;2022-10-29T05:55:01;10.30;99.90
19415;DHT22;9843;48.882;12.592;2022-10-29T05:57:28;10.20;99.90
19415;DHT22;9843;48.882;12.592;2022-10-29T05:59:55;10.30;99.90
19415;DHT22;9843;48.882;12.592;2022-10-29T06:02:23;10.30;99.90
19415;DHT22;9843;48.882;12.592;2022-10-29T06:04:50;10.30;99.90
19415;DHT22;9843;48.882;12.592;2022-10-29T06:07:16;10.40;99.90
19415;DHT22;9843;48.882;12.592;2022-10-29T06:09:43;10.50;99.90
19415;DHT22;9843;48.882;12.592;2022-10-29T06:12:10;10.50;99.90
19415;DHT22;9843;48.882;12.592;2022-10-29T06:14:37;10.60;99.90
19415;DHT22;9843;48.882;12.592;2022-10-29T06:17:03;10.60;99.90
19415;DHT22;9843;48.882;12.592;2022-10-29T06:19:31;10.60;99.90
19415;DHT22;9843;48.882;12.592;2022-10-29T06:21:58;10.70;99.90
19415;DHT22;9843;48.882;12.592;2022-10-29T06:24:25;10.70;99.90
19415;DHT22;9843;48.882;12.592;2022-10-29T06:26:52;10.70;99.90
19415;DHT22;9843;48.882;12.592;2022-10-29T06:29:19;10.80;99.90
19415;DHT22;9843;48.882;12.592;2022-10-29T06:31:46;10.80;99.90
19415;DHT22;9843;48.882;12.592;2022-10-29T06:34:12;10.90;99.90
19415;DHT22;9843;48.882;12.592;2022-10-29T06:36:41;10.90;99.90
19415;DHT22;9843;48.882;12.592;2022-10-29T06:39:07;10.90;99.90
19415;DHT22;9843;48.882;12.592;2022-10-29T06:41:34;10.90;99.90
19415;DHT22;9843;48.882;12.592;2022-10-29T06:44:01;11.00;99.90
19415;DHT22;9843;48.882;12.592;2022-10-29T06:46:28;11.10;99.90
19415;DHT22;9843;48.882;12.592;2022-10-29T06:48:55;11.10;99.90
19415;DHT22;9843;48.882;12.592;2022-10-29T06:51:22;11.20;99.90
19415;DHT22;9843;48.882;12.592;2022-10-29T06:53:50;11.30;99.90
19415;DHT22;9843;48.882;12.592;2022-10-29T06:56:18;11.60;99.90
19415;DHT22;9843;48.882;12.592;2022-10-29T06:58:45;11.90;99.90
19415;DHT22;9843;48.882;12.592;2022-10-29T07:01:12;12.30;99.90
19415;DHT22;9843;48.882;12.592;2022-10-29T07:03:39;12.80;99.90
19415;DHT22;9843;48.882;12.592;2022-10-29T07:06:06;13.20;99.90
19415;DHT22;9843;48.882;12.592;2022-10-29T07:08:33;13.80;99.90
19415;DHT22;9843;48.882;12.592;2022-10-29T07:11:01;13.90;99.90
19415;DHT22;9843;48.882;12.592;2022-10-29T07:13:29;13.90;99.90
19415;DHT22;9843;48.882;12.592;2022-10-29T07:15:55;14.10;99.90
19415;DHT22;9843;48.882;12.592;2022-10-29T07:18:22;14.00;99.90
19415;DHT22;9843;48.882;12.592;2022-10-29T07:20:49;13.80;99.90
19415;DHT22;9843;48.882;12.592;2022-10-29T07:23:15;13.70;99.90
19415;DHT22;9843;48.882;12.592;2022-10-29T07:25:42;13.50;99.90
19415;DHT22;9843;48.882;12.592;2022-10-29T07:28:12;13.40;99.90
19415;DHT22;9843;48.882;12.592;2022-10-29T07:30:40;13.30;99.90
19415;DHT22;9843;48.882;12.592;2022-10-29T07:33:07;13.30;99.90
19415;DHT22;9843;48.882;12.592;2022-10-29T07:35:34;13.30;99.90
19415;DHT22;9843;48.882;12.592;2022-10-29T07:38:02;13.10;99.90
19415;DHT22;9843;48.882;12.592;2022-10-29T07:40:30;13.10;99.90
19415;DHT22;9843;48.882;12.592;2022-10-29T07:42:57;13.00;99.90
19415;DHT22;9843;48.882;12.592;2022-10-29T07:45:25;12.90;99.90
19415;DHT22;9843;48.882;12.592;2022-10-29T07:47:58;12.80;99.90
19415;DHT22;9843;48.882;12.592;2022-10-29T07:50:25;12.80;99.90
19415;DHT22;9843;48.882;12.592;2022-10-29T07:52:52;12.80;99.90
19415;DHT22;9843;48.882;12.592;2022-10-29T07:55:19;12.80;99.90
19415;DHT22;9843;48.882;12.592;2022-10-29T07:57:46;12.70;99.90
19415;DHT22;9843;48.882;12.592;2022-10-29T08:00:13;12.70;99.90
19415;DHT22;9843;48.882;12.592;2022-10-29T08:02:41;12.70;99.90
19415;DHT22;9843;48.882;12.592;2022-10-29T08:05:08;12.80;99.90
19415;DHT22;9843;48.882;12.592;2022-10-29T08:07:35;12.70;99.90
19415;DHT22;9843;48.882;12.592;2022-10-29T08:10:02;12.70;99.90
19415;DHT22;9843;48.882;12.592;2022-10-29T08:12:29;12.60;99.90
19415;DHT22;9843;48.882;12.592;2022-10-29T08:14:55;12.60;99.90
19415;DHT22;9843;48.882;12.592;2022-10-29T08:17:22;12.70;99.90
19415;DHT22;9843;48.882;12.592;2022-10-29T08:19:50;12.70;99.90
19415;DHT22;9843;48.882;12.592;2022-10-29T08:22:17;12.80;99.90
19415;DHT22;9843;48.882;12.592;2022-10-29T08:24:44;12.80;99.90
19415;DHT22;9843;48.882;12.592;2022-10-29T08:27:10;12.90;99.90
19415;DHT22;9843;48.882;12.592;2022-10-29T08:29:37;13.00;99.90
19415;DHT22;9843;48.882;12.592;2022-10-29T08:32:04;13.00;99.90
19415;DHT22;9843;48.882;12.592;2022-10-29T08:34:31;13.10;99.90
19415;DHT22;9843;48.882;12.592;2022-10-29T08:36:59;13.10;99.90
19415;DHT22;9843;48.882;12.592;2022-10-29T08:39:25;13.10;99.90
19415;DHT22;9843;48.882;12.592;2022-10-29T08:41:59;13.10;99.90
19415;DHT22;9843;48.882;12.592;2022-10-29T08:44:48;13.20;99.90
19415;DHT22;9843;48.882;12.592;2022-10-29T08:47:19;13.20;99.90
19415;DHT22;9843;48.882;12.592;2022-10-29T08:49:50;13.30;99.90
19415;DHT22;9843;48.882;12.592;2022-10-29T08:52:24;13.40;99.90
19415;DHT22;9843;48.882;12.592;2022-10-29T08:55:02;13.30;99.90
19415;DHT22;9843;48.882;12.592;2022-10-29T08:57:34;13.40;99.90
19415;DHT22;9843;48.882;12.592;2022-10-29T09:00:05;13.50;99.90
19415;DHT22;9843;48.882;12.592;2022-10-29T09:02:32;13.60;99.90
19415;DHT22;9843;48.882;12.592;2022-10-29T09:04:59;13.70;99.90
19415;DHT22;9843;48.882;12.592;2022-10-29T09:07:38;13.70;99.90
19415;DHT22;9843;48.882;12.592;2022-10-29T09:10:11;13.70;99.90
19415;DHT22;9843;48.882;12.592;2022-10-29T09:13:18;13.80;99.90
19415;DHT22;9843;48.882;12.592;2022-10-29T09:16:13;13.90;99.90
19415;DHT22;9843;48.882;12.592;2022-10-29T09:19:06;14.00;99.90
19415;DHT22;9843;48.882;12.592;2022-10-29T09:21:45;13.90;99.90
19415;DHT22;9843;48.882;12.592;2022-10-29T09:24:25;14.00;99.90
19415;DHT22;9843;48.882;12.592;2022-10-29T09:26:57;13.90;99.90
19415;DHT22;9843;48.882;12.592;2022-10-29T09:29:36;14.00;99.90
19415;DHT22;9843;48.882;12.592;2022-10-29T09:32:12;14.10;99.90
19415;DHT22;9843;48.882;12.592;2022-10-29T09:34:44;14.00;99.90
19415;DHT22;9843;48.882;12.592;2022-10-29T09:37:17;14.10;99.90
19415;DHT22;9843;48.882;12.592;2022-10-29T09:39:47;14.10;99.90
19415;DHT22;9843;48.882;12.592;2022-10-29T09:42:17;14.20;99.90
19415;DHT22;9843;48.882;12.592;2022-10-29T09:44:49;14.40;99.90
19415;DHT22;9843;48.882;12.592;2022-10-29T09:47:28;14.60;99.90
19415;DHT22;9843;48.882;12.592;2022-10-29T09:50:08;14.70;99.90
19415;DHT22;9843;48.882;12.592;2022-10-29T09:52:39;14.90;99.90
19415;DHT22;9843;48.882;12.592;2022-10-29T09:55:16;15.00;99.90
19415;DHT22;9843;48.882;12.592;2022-10-29T09:57:43;15.20;99.90
19415;DHT22;9843;48.882;12.592;2022-10-29T10:00:17;15.40;99.90
19415;DHT22;9843;48.882;12.592;2022-10-29T10:02:48;15.80;99.90
19415;DHT22;9843;48.882;12.592;2022-10-29T10:05:22;16.20;99.90
19415;DHT22;9843;48.882;12.592;2022-10-29T10:08:08;16.80;99.90
19415;DHT22;9843;48.882;12.592;2022-10-29T10:10:48;17.60;99.90
19415;DHT22;9843;48.882;12.592;2022-10-29T10:13:16;18.70;99.90
19415;DHT22;9843;48.882;12.592;2022-10-29T10:15:49;19.80;99.90
19415;DHT22;9843;48.882;12.592;2022-10-29T10:18:18;19.90;99.90
19415;DHT22;9843;48.882;12.592;2022-10-29T10:20:47;19.20;99.90
19415;DHT22;9843;48.882;12.592;2022-10-29T10:23:25;18.30;99.90
19415;DHT22;9843;48.882;12.592;2022-10-29T10:25:55;17.50;99.90
19415;DHT22;9843;48.882;12.592;2022-10-29T10:28:24;17.10;99.90
19415;DHT22;9843;48.882;12.592;2022-10-29T10:31:10;16.80;99.90
19415;DHT22;9843;48.882;12.592;2022-10-29T10:33:48;16.30;99.90
19415;DHT22;9843;48.882;12.592;2022-10-29T10:36:15;16.30;99.90
19415;DHT22;9843;48.882;12.592;2022-10-29T10:38:44;16.20;99.90
19415;DHT22;9843;48.882;12.592;2022-10-29T10:41:14;16.20;99.90
19415;DHT22;9843;48.882;12.592;2022-10-29T10:43:42;16.60;99.90
19415;DHT22;9843;48.882;12.592;2022-10-29T10:46:14;17.20;99.90
19415;DHT22;9843;48.882;12.592;2022-10-29T10:48:42;17.70;99.90
19415;DHT22;9843;48.882;12.592;2022-10-29T10:51:14;18.10;99.90
19415;DHT22;9843;48.882;12.592;2022-10-29T10:53:42;18.30;99.90
19415;DHT22;9843;48.882;12.592;2022-10-29T10:56:17;18.20;99.90
19415;DHT22;9843;48.882;12.592;2022-10-29T10:58:49;18.50;99.90
19415;DHT22;9843;48.882;12.592;2022-10-29T11:01:22;18.40;99.90
19415;DHT22;9843;48.882;12.592;2022-10-29T11:03:57;18.60;99.90
19415;DHT22;9843;48.882;12.592;2022-10-29T11:06:27;18.40;99.90
19415;DHT22;9843;48.882;12.592;2022-10-29T11:09:00;18.50;99.90
19415;DHT22;9843;48.882;12.592;2022-10-29T11:11:35;18.40;99.90
19415;DHT22;9843;48.882;12.592;2022-10-29T11:14:12;18.20;99.90
19415;DHT22;9843;48.882;12.592;2022-10-29T11:24:17;18.40;99.90
19415;DHT22;9843;48.882;12.592;2022-10-29T11:26:49;18.90;99.90
19415;DHT22;9843;48.882;12.592;2022-10-29T11:29:20;19.40;99.90
19415;DHT22;9843;48.882;12.592;2022-10-29T11:31:52;19.60;99.90
19415;DHT22;9843;48.882;12.592;2022-10-29T11:34:23;20.20;99.90
19415;DHT22;9843;48.882;12.592;2022-10-29T11:36:56;20.40;99.90
19415;DHT22;9843;48.882;12.592;2022-10-29T11:39:29;21.20;99.90
19415;DHT22;9843;48.882;12.592;2022-10-29T11:41:59;21.60;99.90
19415;DHT22;9843;48.882;12.592;2022-10-29T11:44:28;22.30;99.90
19415;DHT22;9843;48.882;12.592;2022-10-29T11:47:07;22.90;99.90
19415;DHT22;9843;48.882;12.592;2022-10-29T11:49:45;23.00;99.90
19415;DHT22;9843;48.882;12.592;2022-10-29T11:52:26;23.80;99.90
19415;DHT22;9843;48.882;12.592;2022-10-29T11:55:03;24.60;99.90
19415;DHT22;9843;48.882;12.592;2022-10-29T11:57:40;24.10;99.90
19415;DHT22;9843;48.882;12.592;2022-10-29T12:00:13;23.00;99.90
19415;DHT22;9843;48.882;12.592;2022-10-29T12:05:39;23.40;99.90
19415;DHT22;9843;48.882;12.592;2022-10-29T12:08:20;23.80;99.90
19415;DHT22;9843;48.882;12.592;2022-10-29T12:10:55;23.60;99.90
19415;DHT22;9843;48.882;12.592;2022-10-29T12:16:13;22.30;99.90
19415;DHT22;9843;48.882;12.592;2022-10-29T12:18:47;22.60;99.90
19415;DHT22;9843;48.882;12.592;2022-10-29T12:21:21;22.20;99.90
19415;DHT22;9843;48.882;12.592;2022-10-29T12:23:59;21.70;99.90
19415;DHT22;9843;48.882;12.592;2022-10-29T12:26:34;21.60;99.90
19415;DHT22;9843;48.882;12.592;2022-10-29T12:29:10;21.30;99.90
19415;DHT22;9843;48.882;12.592;2022-10-29T12:31:43;20.70;99.90
19415;DHT22;9843;48.882;12.592;2022-10-29T12:34:18;20.70;99.90
19415;DHT22;9843;48.882;12.592;2022-10-29T12:36:50;20.50;99.90
19415;DHT22;9843;48.882;12.592;2022-10-29T12:39:26;20.70;99.90
19415;DHT22;9843;48.882;12.592;2022-10-29T12:41:58;20.90;99.90
19415;DHT22;9843;48.882;12.592;2022-10-29T12:44:35;21.20;99.90
19415;DHT22;9843;48.882;12.592;2022-10-29T12:47:06;21.20;99.90
19415;DHT22;9843;48.882;12.592;2022-10-29T12:49:48;21.30;99.90
19415;DHT22;9843;48.882;12.592;2022-10-29T12:52:21;21.50;99.90
19415;DHT22;9843;48.882;12.592;2022-10-29T12:54:51;21.60;99.90
19415;DHT22;9843;48.882;12.592;2022-10-29T12:59:50;21.50;99.90
19415;DHT22;9843;48.882;12.592;2022-10-29T13:02:25;21.60;99.90
19415;DHT22;9843;48.882;12.592;2022-10-29T13:05:19;21.20;99.90
19415;DHT22;9843;48.882;12.592;2022-10-29T13:08:25;21.00;99.90
19415;DHT22;9843;48.882;12.592;2022-10-29T13:10:54;21.20;99.90
19415;DHT22;9843;48.882;12.592;2022-10-29T13:13:52;21.30;99.90
19415;DHT22;9843;48.882;12.592;2022-10-29T13:16:27;21.40;99.90
19415;DHT22;9843;48.882;12.592;2022-10-29T13:19:07;21.40;99.90
19415;DHT22;9843;48.882;12.592;2022-10-29T13:28:50;21.50;99.90
19415;DHT22;9843;48.882;12.592;2022-10-29T13:31:43;21.70;99.90
19415;DHT22;9843;48.882;12.592;2022-10-29T13:34:10;21.50;99.90
19415;DHT22;9843;48.882;12.592;2022-10-29T13:36:37;21.40;99.90
19415;DHT22;9843;48.882;12.592;2022-10-29T13:39:21;21.30;99.90
19415;DHT22;9843;48.882;12.592;2022-10-29T13:41:49;20.80;99.90
19415;DHT22;9843;48.882;12.592;2022-10-29T13:44:19;20.40;99.90
19415;DHT22;9843;48.882;12.592;2022-10-29T13:46:52;20.00;99.90
19415;DHT22;9843;48.882;12.592;2022-10-29T13:49:23;19.70;99.90
19415;DHT22;9843;48.882;12.592;2022-10-29T13:51:54;19.50;99.90
19415;DHT22;9843;48.882;12.592;2022-10-29T13:54:27;19.50;99.90
19415;DHT22;9843;48.882;12.592;2022-10-29T13:56:58;19.40;99.90
19415;DHT22;9843;48.882;12.592;2022-10-29T13:59:33;19.30;99.90
19415;DHT22;9843;48.882;12.592;2022-10-29T14:02:24;19.30;99.90
19415;DHT22;9843;48.882;12.592;2022-10-29T14:04:54;19.20;99.90
19415;DHT22;9843;48.882;12.592;2022-10-29T14:07:27;19.10;99.90
19415;DHT22;9843;48.882;12.592;2022-10-29T14:10:01;19.00;99.90
19415;DHT22;9843;48.882;12.592;2022-10-29T14:12:30;19.00;99.90
19415;DHT22;9843;48.882;12.592;2022-10-29T14:15:02;18.90;99.90
19415;DHT22;9843;48.882;12.592;2022-10-29T14:17:31;19.00;99.90
19415;DHT22;9843;48.882;12.592;2022-10-29T14:19:58;19.00;99.90
19415;DHT22;9843;48.882;12.592;2022-10-29T14:22:32;19.00;99.90
19415;DHT22;9843;48.882;12.592;2022-10-29T14:25:00;18.90;99.90
19415;DHT22;9843;48.882;12.592;2022-10-29T14:27:27;18.90;99.90
19415;DHT22;9843;48.882;12.592;2022-10-29T14:30:12;18.80;99.90
19415;DHT22;9843;48.882;12.592;2022-10-29T14:32:41;18.70;99.90
19415;DHT22;9843;48.882;12.592;2022-10-29T14:35:13;18.70;99.90
19415;DHT22;9843;48.882;12.592;2022-10-29T14:37:42;18.70;99.90
19415;DHT22;9843;48.882;12.592;2022-10-29T14:40:15;18.60;99.90
19415;DHT22;9843;48.882;12.592;2022-10-29T14:42:45;18.60;99.90
19415;DHT22;9843;48.882;12.592;2022-10-29T14:45:17;18.60;99.90
19415;DHT22;9843;48.882;12.592;2022-10-29T14:47:50;18.50;99.90
19415;DHT22;9843;48.882;12.592;2022-10-29T14:50:20;18.40;99.90
19415;DHT22;9843;48.882;12.592;2022-10-29T14:52:50;18.30;99.90
19415;DHT22;9843;48.882;12.592;2022-10-29T14:55:20;18.30;99.90
19415;DHT22;9843;48.882;12.592;2022-10-29T14:57:51;18.30;99.90
19415;DHT22;9843;48.882;12.592;2022-10-29T15:00:23;18.20;99.90
19415;DHT22;9843;48.882;12.592;2022-10-29T15:02:52;18.10;99.90
19415;DHT22;9843;48.882;12.592;2022-10-29T15:05:23;18.10;99.90
19415;DHT22;9843;48.882;12.592;2022-10-29T15:07:51;18.00;99.90
19415;DHT22;9843;48.882;12.592;2022-10-29T15:10:28;17.90;99.90
19415;DHT22;9843;48.882;12.592;2022-10-29T15:12:55;17.90;99.90
19415;DHT22;9843;48.882;12.592;2022-10-29T15:15:25;17.80;99.90
19415;DHT22;9843;48.882;12.592;2022-10-29T15:17:57;17.80;99.90
19415;DHT22;9843;48.882;12.592;2022-10-29T15:20:29;17.80;99.90
19415;DHT22;9843;48.882;12.592;2022-10-29T15:22:57;17.80;99.90
19415;DHT22;9843;48.882;12.592;2022-10-29T15:25:28;17.70;99.90
19415;DHT22;9843;48.882;12.592;2022-10-29T15:27:56;17.70;99.90
19415;DHT22;9843;48.882;12.592;2022-10-29T15:32:58;17.60;99.90
19415;DHT22;9843;48.882;12.592;2022-10-29T15:35:26;17.40;99.90
19415;DHT22;9843;48.882;12.592;2022-10-29T15:37:53;17.30;99.90
19415;DHT22;9843;48.882;12.592;2022-10-29T15:42:49;17.00;99.90
19415;DHT22;9843;48.882;12.592;2022-10-29T15:45:22;16.80;99.90
19415;DHT22;9843;48.882;12.592;2022-10-29T15:50:21;16.40;99.90
19415;DHT22;9843;48.882;12.592;2022-10-29T15:52:53;16.30;99.90
19415;DHT22;9843;48.882;12.592;2022-10-29T15:55:24;16.10;99.90
19415;DHT22;9843;48.882;12.592;2022-10-29T15:57:52;16.00;99.90
19415;DHT22;9843;48.882;12.592;2022-10-29T16:00:21;15.90;99.90
19415;DHT22;9843;48.882;12.592;2022-10-29T16:02:49;15.80;99.90
19415;DHT22;9843;48.882;12.592;2022-10-29T16:05:18;15.70;99.90
19415;DHT22;9843;48.882;12.592;2022-10-29T16:07:46;15.50;99.90
19415;DHT22;9843;48.882;12.592;2022-10-29T16:10:15;15.40;99.90
19415;DHT22;9843;48.882;12.592;2022-10-29T16:12:43;15.20;99.90
19415;DHT22;9843;48.882;12.592;2022-10-29T16:15:15;15.10;99.90
19415;DHT22;9843;48.882;12.592;2022-10-29T16:17:42;15.00;99.90
19415;DHT22;9843;48.882;12.592;2022-10-29T16:20:12;15.00;99.90
19415;DHT22;9843;48.882;12.592;2022-10-29T16:22:40;15.00;99.90
19415;DHT22;9843;48.882;12.592;2022-10-29T16:25:17;15.00;99.90
19415;DHT22;9843;48.882;12.592;2022-10-29T16:27:45;15.00;99.90
19415;DHT22;9843;48.882;12.592;2022-10-29T16:30:12;15.00;99.90